Time;durP1;ratioP1;P1;durP2;ratioP2;P2;SDS_P1;SDS_P2;PMS_P1;PMS_P2;Temp;Humidity;BMP_temperature;BMP_pressure;BME280_temperature;BME280_humidity;BME280_pressure;Samples;Min_cycle;Max_cycle;Signal;HPM_P1;HPM_P2
2023/07/28 00:02:12;;;;;;;8.48;4.57;;;13.40;99.90;;;;;;5074780;28;20462;-56
2023/07/28 00:04:38;;;;;;;6.57;4.20;;;13.40;99.90;;;;;;5074505;28;20017;-56
2023/07/28 00:07:05;;;;;;;8.60;4.32;;;13.40;99.90;;;;;;5074515;28;20428;-56
2023/07/28 00:09:31;;;;;;;8.80;3.65;;;13.30;99.90;;;;;;5074711;28;20107;-56
2023/07/28 00:11:58;;;;;;;6.68;4.22;;;13.30;99.90;;;;;;5074412;28;20056;-56
2023/07/28 00:14:25;;;;;;;7.90;4.35;;;13.30;99.90;;;;;;5074533;28;20017;-56
2023/07/28 00:16:55;;;;;;;5.82;3.72;;;13.30;99.90;;;;;;5074601;28;20546;-56
2023/07/28 00:19:21;;;;;;;9.73;4.63;;;13.40;99.90;;;;;;5074701;28;20025;-56
2023/07/28 00:21:51;;;;;;;8.88;4.03;;;13.30;99.90;;;;;;5083346;28;20035;-56
2023/07/28 00:24:18;;;;;;;7.85;3.60;;;13.30;99.90;;;;;;5094858;28;20028;-56
2023/07/28 00:26:44;;;;;;;6.45;4.20;;;13.20;99.90;;;;;;5094330;28;20083;-56
2023/07/28 00:29:11;;;;;;;9.23;4.20;;;13.20;99.90;;;;;;5094573;28;20024;-56
2023/07/28 00:31:37;;;;;;;12.82;4.07;;;13.10;99.90;;;;;;5093200;28;20032;-56
2023/07/28 00:34:03;;;;;;;8.52;3.97;;;13.10;99.90;;;;;;5094653;28;20472;-56
2023/07/28 00:36:30;;;;;;;8.05;4.22;;;13.10;99.90;;;;;;5094678;28;20036;-56
2023/07/28 00:38:57;;;;;;;7.30;4.05;;;13.10;99.90;;;;;;5094537;28;20024;-56
2023/07/28 00:41:23;;;;;;;7.10;4.30;;;13.10;99.90;;;;;;5094422;28;20028;-56
2023/07/28 00:43:49;;;;;;;7.60;3.97;;;13.00;99.90;;;;;;5094441;28;20028;-56
2023/07/28 00:46:16;;;;;;;11.15;4.60;;;13.00;99.90;;;;;;5093037;28;20119;-56
2023/07/28 00:48:42;;;;;;;7.47;3.58;;;13.00;99.90;;;;;;5094399;28;20381;-56
2023/07/28 00:51:09;;;;;;;6.75;4.15;;;13.00;99.90;;;;;;5092893;28;20404;-56
2023/07/28 00:53:36;;;;;;;8.45;3.80;;;12.90;99.90;;;;;;5092905;28;20027;-56
2023/07/28 00:56:05;;;;;;;7.00;4.00;;;12.90;99.90;;;;;;5092947;28;20035;-56
2023/07/28 00:58:31;;;;;;;6.80;3.80;;;13.00;99.90;;;;;;5092946;28;20093;-56
2023/07/28 01:00:57;;;;;;;6.72;4.07;;;12.90;99.90;;;;;;5094221;28;20028;-56
2023/07/28 01:03:25;;;;;;;14.10;4.05;;;12.90;99.90;;;;;;5094170;28;20035;-56
2023/07/28 01:06:06;;;;;;;6.47;4.00;;;12.90;99.90;;;;;;5092792;28;20031;-56
2023/07/28 01:08:47;;;;;;;9.45;4.45;;;12.80;99.90;;;;;;5094106;28;20107;-56
2023/07/28 01:11:14;;;;;;;8.13;3.97;;;12.80;99.90;;;;;;5094014;28;20020;-56
2023/07/28 01:13:41;;;;;;;10.15;4.35;;;12.80;99.90;;;;;;5094275;28;20108;-56
2023/07/28 01:16:08;;;;;;;10.48;3.90;;;12.80;99.90;;;;;;5094022;28;20059;-56
2023/07/28 01:18:34;;;;;;;6.63;4.10;;;12.80;99.90;;;;;;5094118;28;20103;-56
2023/07/28 01:21:05;;;;;;;7.90;4.20;;;12.80;99.90;;;;;;5091550;28;20032;-56
2023/07/28 01:24:02;;;;;;;6.10;3.92;;;12.90;99.90;;;;;;5073803;28;20024;-56
2023/07/28 01:26:35;;;;;;;8.32;3.75;;;12.80;99.90;;;;;;5052098;28;20052;-56
2023/07/28 01:29:03;;;;;;;5.13;3.17;;;12.80;99.90;;;;;;5072512;28;20062;-56
2023/07/28 01:31:29;;;;;;;7.00;3.83;;;12.80;99.90;;;;;;5073710;28;20032;-56
2023/07/28 01:33:55;;;;;;;5.28;3.33;;;12.80;99.90;;;;;;5076128;28;20029;-56
2023/07/28 01:36:21;;;;;;;7.28;3.85;;;12.80;99.90;;;;;;5077310;28;20034;-56
2023/07/28 01:38:47;;;;;;;5.85;3.40;;;12.90;99.90;;;;;;5077317;28;20074;-56
2023/07/28 01:41:13;;;;;;;7.28;3.83;;;12.90;99.90;;;;;;5077206;28;20067;-56
2023/07/28 01:43:39;;;;;;;7.45;4.30;;;12.80;99.90;;;;;;5077134;28;20033;-56
2023/07/28 01:46:05;;;;;;;7.75;3.88;;;12.80;99.90;;;;;;5077155;28;20517;-56
2023/07/28 01:48:31;;;;;;;5.90;3.75;;;12.70;99.90;;;;;;5077267;28;20219;-56
2023/07/28 01:50:57;;;;;;;6.03;3.30;;;12.80;99.90;;;;;;5075913;28;20031;-56
2023/07/28 01:53:23;;;;;;;8.27;4.13;;;12.80;99.90;;;;;;5077075;28;20363;-56
2023/07/28 01:55:49;;;;;;;6.47;3.60;;;12.70;99.90;;;;;;5075719;28;20043;-56
2023/07/28 01:58:15;;;;;;;6.63;3.90;;;12.70;99.90;;;;;;5075834;28;20081;-56
2023/07/28 02:00:41;;;;;;;5.78;3.53;;;12.70;99.90;;;;;;5075326;28;20032;-56
2023/07/28 02:03:07;;;;;;;11.90;4.13;;;12.70;99.90;;;;;;5075511;28;20123;-56
2023/07/28 02:05:34;;;;;;;4.70;3.65;;;12.70;99.90;;;;;;5076606;28;20549;-56
2023/07/28 02:08:00;;;;;;;7.70;4.53;;;12.80;99.90;;;;;;5075433;28;20033;-56
2023/07/28 02:10:30;;;;;;;7.63;4.03;;;12.70;99.90;;;;;;5076739;28;20107;-56
2023/07/28 02:12:56;;;;;;;6.53;3.72;;;12.70;99.90;;;;;;5075284;28;20038;-56
2023/07/28 02:15:22;;;;;;;5.80;3.80;;;12.80;99.90;;;;;;5075372;28;20035;-56
2023/07/28 02:17:49;;;;;;;7.40;4.10;;;12.70;99.90;;;;;;5075347;28;20028;-56
2023/07/28 02:20:15;;;;;;;8.50;3.85;;;12.80;99.90;;;;;;5076492;28;20034;-56
2023/07/28 02:22:42;;;;;;;5.72;3.53;;;12.70;99.90;;;;;;5091762;28;20039;-56
2023/07/28 02:25:09;;;;;;;9.05;4.15;;;12.70;99.90;;;;;;5096445;28;20045;-56
2023/07/28 02:27:35;;;;;;;7.20;4.03;;;12.70;99.90;;;;;;5096662;28;20024;-56
2023/07/28 02:30:01;;;;;;;8.30;4.38;;;12.60;99.90;;;;;;5096627;28;20058;-56
2023/07/28 02:32:28;;;;;;;8.85;4.10;;;12.60;99.90;;;;;;5095240;28;20114;-56
2023/07/28 02:34:54;;;;;;;7.43;4.05;;;12.50;99.90;;;;;;5096576;28;20527;-56
2023/07/28 02:37:20;;;;;;;9.20;4.40;;;12.50;99.90;;;;;;5096389;28;20028;-56
2023/07/28 02:39:46;;;;;;;6.70;3.65;;;12.50;99.90;;;;;;5096562;28;20024;-56
2023/07/28 02:42:13;;;;;;;10.98;4.32;;;12.50;99.90;;;;;;5096303;28;20020;-56
2023/07/28 02:44:39;;;;;;;6.97;4.10;;;12.50;99.90;;;;;;5096124;28;20024;-56
2023/07/28 02:47:06;;;;;;;8.90;4.85;;;12.50;99.90;;;;;;5096193;28;20070;-56
2023/07/28 02:49:31;;;;;;;8.00;5.05;;;12.50;99.90;;;;;;5096230;28;20024;-56
2023/07/28 02:51:58;;;;;;;6.75;4.35;;;12.40;99.90;;;;;;5094815;28;20024;-56
2023/07/28 02:54:25;;;;;;;6.78;4.35;;;12.40;99.90;;;;;;5096316;28;20319;-56
2023/07/28 02:56:52;;;;;;;7.30;4.65;;;12.30;99.90;;;;;;5094773;28;20039;-56
2023/07/28 02:59:18;;;;;;;7.60;4.68;;;12.30;99.90;;;;;;5096013;28;20532;-56
2023/07/28 03:01:44;;;;;;;7.03;4.72;;;12.40;99.90;;;;;;5094721;28;20097;-56
2023/07/28 03:04:10;;;;;;;6.15;4.40;;;12.40;99.90;;;;;;5094834;28;20443;-56
2023/07/28 03:06:56;;;;;;;7.88;5.22;;;12.30;99.90;;;;;;5095802;28;20417;-56
2023/07/28 03:09:22;;;;;;;11.50;4.95;;;12.30;99.90;;;;;;5094438;28;20035;-56
2023/07/28 03:12:09;;;;;;;5.72;4.18;;;12.30;99.90;;;;;;5095412;28;20036;-56
2023/07/28 03:14:35;;;;;;;8.10;4.40;;;12.30;99.90;;;;;;5094637;28;20020;-56
2023/07/28 03:17:02;;;;;;;5.25;4.20;;;12.30;99.90;;;;;;5095618;28;20105;-56
2023/07/28 03:19:28;;;;;;;6.47;4.13;;;12.40;99.90;;;;;;5094296;28;20036;-56
2023/07/28 03:21:54;;;;;;;6.03;3.80;;;12.30;99.90;;;;;;5085444;28;20714;-56
2023/07/28 03:24:20;;;;;;;5.57;4.20;;;12.30;99.90;;;;;;5073908;28;20036;-56
2023/07/28 03:26:46;;;;;;;7.80;3.40;;;12.30;99.90;;;;;;5073815;28;20037;-56
2023/07/28 03:29:12;;;;;;;6.68;3.67;;;12.30;99.90;;;;;;5073981;28;20029;-56
2023/07/28 03:31:38;;;;;;;6.43;3.97;;;12.30;99.90;;;;;;5075023;28;20028;-56
2023/07/28 03:34:05;;;;;;;6.90;3.92;;;12.30;99.90;;;;;;5073824;28;20047;-56
2023/07/28 03:36:31;;;;;;;5.60;4.13;;;12.30;99.90;;;;;;5073955;28;20028;-56
2023/07/28 03:38:58;;;;;;;6.25;4.03;;;12.30;99.90;;;;;;5073687;28;20389;-56
2023/07/28 03:41:25;;;;;;;7.90;4.72;;;12.30;99.90;;;;;;5073734;28;20040;-56
2023/07/28 03:43:51;;;;;;;6.93;4.22;;;12.30;99.90;;;;;;5073646;28;20031;-56
2023/07/28 03:46:17;;;;;;;8.40;4.50;;;12.40;99.90;;;;;;5074752;28;20492;-56
2023/07/28 03:48:43;;;;;;;7.10;4.10;;;12.30;99.90;;;;;;5073466;28;20485;-56
2023/07/28 03:51:09;;;;;;;7.47;4.35;;;12.30;99.90;;;;;;5073677;28;20028;-56
2023/07/28 03:53:35;;;;;;;5.82;3.85;;;12.40;99.90;;;;;;5073443;28;20378;-56
2023/07/28 03:56:02;;;;;;;6.28;3.45;;;12.40;99.90;;;;;;5073008;28;20036;-56
2023/07/28 03:58:28;;;;;;;7.25;4.57;;;12.40;99.90;;;;;;5073394;28;20024;-56
2023/07/28 04:00:54;;;;;;;5.82;4.03;;;12.50;99.90;;;;;;5073269;28;20100;-56
2023/07/28 04:03:20;;;;;;;6.28;4.30;;;12.50;99.90;;;;;;5073455;28;20040;-56
2023/07/28 04:05:46;;;;;;;10.68;4.30;;;12.70;99.90;;;;;;5073360;28;20078;-56
2023/07/28 04:08:12;;;;;;;8.10;3.88;;;12.70;99.90;;;;;;5074528;28;20039;-56
2023/07/28 04:10:39;;;;;;;6.50;4.10;;;12.70;99.90;;;;;;5074463;28;20024;-56
2023/07/28 04:13:05;;;;;;;9.63;4.38;;;12.70;99.90;;;;;;5073185;28;20020;-56
2023/07/28 04:15:31;;;;;;;6.82;4.10;;;12.70;99.90;;;;;;5073292;28;20032;-56
2023/07/28 04:17:57;;;;;;;6.20;3.63;;;12.80;99.90;;;;;;5074530;28;20024;-56
2023/07/28 04:20:23;;;;;;;10.70;4.20;;;12.80;99.90;;;;;;5074233;28;20033;-56
2023/07/28 04:22:49;;;;;;;7.53;4.43;;;12.80;99.90;;;;;;5090782;28;20108;-56
2023/07/28 04:25:15;;;;;;;11.88;4.40;;;12.80;99.90;;;;;;5094534;28;20094;-57
2023/07/28 04:27:45;;;;;;;9.45;4.25;;;12.80;99.90;;;;;;5093199;28;20036;-56
2023/07/28 04:30:12;;;;;;;14.77;4.88;;;12.80;99.90;;;;;;5093166;28;20392;-56
2023/07/28 04:32:38;;;;;;;8.45;4.78;;;12.90;99.90;;;;;;5093116;28;20107;-56
2023/07/28 04:35:18;;;;;;;8.00;4.35;;;12.90;99.90;;;;;;5093115;28;20026;-56
2023/07/28 04:38:02;;;;;;;6.65;4.13;;;12.80;99.90;;;;;;5094534;28;20067;-56
2023/07/28 04:40:49;;;;;;;7.88;4.65;;;12.90;99.90;;;;;;5094183;28;20070;-56
2023/07/28 04:43:18;;;;;;;5.55;4.22;;;13.10;99.90;;;;;;5093107;28;20024;-56
2023/07/28 04:45:50;;;;;;;13.00;6.03;;;13.10;99.90;;;;;;5092862;28;20028;-56
2023/07/28 04:48:19;;;;;;;11.90;6.13;;;13.30;99.90;;;;;;5093142;28;20028;-56
2023/07/28 04:50:45;;;;;;;12.68;5.40;;;13.40;99.90;;;;;;5093084;28;20076;-56
2023/07/28 04:53:34;;;;;;;13.32;6.30;;;13.50;99.90;;;;;;5094200;28;20470;-56
2023/07/28 04:56:10;;;;;;;10.63;6.90;;;13.50;99.90;;;;;;5094065;28;20028;-56
2023/07/28 04:58:36;;;;;;;13.70;6.80;;;13.60;99.90;;;;;;5094433;28;20024;-56
2023/07/28 05:01:03;;;;;;;9.20;5.20;;;13.70;99.90;;;;;;5092946;28;20032;-56
2023/07/28 05:03:30;;;;;;;20.08;7.43;;;13.90;99.90;;;;;;5092974;28;20043;-56
2023/07/28 05:06:04;;;;;;;11.15;5.60;;;14.00;99.90;;;;;;5092973;28;20028;-56
2023/07/28 05:08:30;;;;;;;13.77;6.07;;;14.10;99.90;;;;;;5094654;28;20035;-56
2023/07/28 05:10:56;;;;;;;13.30;6.60;;;14.20;99.90;;;;;;5096421;28;20416;-56
2023/07/28 05:13:23;;;;;;;12.60;6.80;;;14.40;99.90;;;;;;5096631;28;20124;-56
2023/07/28 05:15:53;;;;;;;10.77;6.22;;;14.40;99.90;;;;;;5097141;28;20032;-56
2023/07/28 05:18:42;;;;;;;10.85;5.88;;;14.50;99.90;;;;;;5066859;28;20066;-57
2023/07/28 05:21:27;;;;;;;12.13;5.68;;;14.60;99.90;;;;;;5083066;28;20128;-57
2023/07/28 05:23:53;;;;;;;20.02;7.35;;;14.80;99.90;;;;;;5097045;28;20169;-57
2023/07/28 05:26:19;;;;;;;20.73;7.38;;;14.80;99.90;;;;;;5096213;28;20059;-56
2023/07/28 05:28:45;;;;;;;14.32;6.40;;;15.00;99.90;;;;;;5098621;28;20024;-57
2023/07/28 05:31:11;;;;;;;13.43;6.72;;;15.00;99.90;;;;;;5096987;28;20036;-57
2023/07/28 05:33:39;;;;;;;12.95;6.88;;;15.10;99.90;;;;;;5079459;28;20028;-57
2023/07/28 05:36:05;;;;;;;17.25;7.95;;;15.30;99.90;;;;;;5097615;28;20111;-57
2023/07/28 05:38:31;;;;;;;17.30;7.30;;;15.30;99.90;;;;;;5096094;28;20477;-56
2023/07/28 05:41:02;;;;;;;15.27;8.18;;;15.40;99.90;;;;;;5097389;28;20039;-57
2023/07/28 05:43:30;;;;;;;11.38;7.72;;;15.60;99.90;;;;;;5095922;28;20036;-57
2023/07/28 05:45:58;;;;;;;28.65;10.98;;;15.60;99.90;;;;;;5094108;28;20122;-57
2023/07/28 05:48:25;;;;;;;10.60;6.63;;;15.80;99.90;;;;;;5092733;28;20332;-56
2023/07/28 05:50:53;;;;;;;19.63;7.15;;;15.90;99.90;;;;;;5075564;28;20060;-58
2023/07/28 05:53:22;;;;;;;12.90;6.70;;;16.00;99.90;;;;;;5092348;28;20031;-58
2023/07/28 05:55:51;;;;;;;16.60;7.88;;;16.10;99.90;;;;;;5080405;28;20104;-58
2023/07/28 05:58:17;;;;;;;14.48;7.88;;;16.30;99.90;;;;;;5092897;28;20024;-58
2023/07/28 06:00:47;;;;;;;15.73;6.65;;;16.30;99.90;;;;;;5095307;28;20123;-57
2023/07/28 06:03:33;;;;;;;19.63;7.80;;;16.30;99.90;;;;;;5096012;28;20028;-58
2023/07/28 06:06:09;;;;;;;12.15;6.47;;;16.40;99.90;;;;;;5094767;28;20035;-57
2023/07/28 06:08:37;;;;;;;16.63;6.28;;;16.60;99.90;;;;;;5094960;28;20027;-58
2023/07/28 06:11:07;;;;;;;13.35;6.65;;;16.60;99.90;;;;;;5095890;28;20020;-58
2023/07/28 06:13:33;;;;;;;18.40;7.50;;;16.80;99.90;;;;;;5094040;28;20099;-58
2023/07/28 06:16:00;;;;;;;17.13;7.38;;;16.90;99.90;;;;;;5095654;28;20868;-58
2023/07/28 06:18:26;;;;;;;12.18;5.93;;;17.10;99.90;;;;;;5094953;28;20039;-58
2023/07/28 06:21:04;;;;;;;19.63;7.32;;;17.30;99.90;;;;;;5094569;28;20028;-58
2023/07/28 06:23:30;;;;;;;14.98;6.43;;;17.40;99.90;;;;;;5093214;28;20024;-57
2023/07/28 06:25:57;;;;;;;11.43;6.55;;;17.50;99.90;;;;;;5094173;28;20062;-58
2023/07/28 06:28:25;;;;;;;14.23;6.20;;;17.70;99.90;;;;;;5094838;28;20031;-58
2023/07/28 06:30:55;;;;;;;11.45;5.47;;;17.80;99.90;;;;;;5095816;28;20086;-58
2023/07/28 06:33:22;;;;;;;15.45;6.13;;;18.00;99.90;;;;;;5091692;28;20108;-58
2023/07/28 06:35:49;;;;;;;15.00;6.45;;;18.20;99.90;;;;;;5094502;28;20036;-58
2023/07/28 06:38:15;;;;;;;9.45;5.10;;;18.20;99.90;;;;;;5095600;28;20070;-58
2023/07/28 06:40:41;;;;;;;16.35;6.38;;;18.40;99.90;;;;;;5092866;28;20389;-58
2023/07/28 06:43:07;;;;;;;17.15;11.57;;;18.60;99.90;;;;;;5077392;28;20085;-58
2023/07/28 06:45:34;;;;;;;17.83;6.15;;;18.70;99.90;;;;;;5094058;28;20032;-58
2023/07/28 06:48:01;;;;;;;15.40;7.60;;;18.90;99.90;;;;;;5091305;28;20016;-58
2023/07/28 06:50:28;;;;;;;11.98;5.60;;;19.10;99.90;;;;;;5095437;28;20107;-58
2023/07/28 06:52:54;;;;;;;9.60;5.43;;;19.20;99.50;;;;;;5094391;28;20472;-58
2023/07/28 06:55:23;;;;;;;10.35;6.03;;;19.50;99.90;;;;;;5095300;28;20031;-58
2023/07/28 06:57:49;;;;;;;11.10;6.28;;;19.50;97.90;;;;;;5096426;28;20373;-58
2023/07/28 07:00:17;;;;;;;10.25;5.68;;;19.70;99.20;;;;;;5095003;28;20106;-58
2023/07/28 07:02:44;;;;;;;11.50;6.18;;;19.80;97.70;;;;;;5096653;28;20020;-58
2023/07/28 07:05:11;;;;;;;10.35;5.45;;;20.10;98.00;;;;;;5096372;28;20056;-58
2023/07/28 07:07:38;;;;;;;11.88;7.38;;;20.40;97.70;;;;;;5096250;28;20028;-58
2023/07/28 07:10:06;;;;;;;8.63;5.40;;;20.70;95.40;;;;;;5094538;28;20020;-58
2023/07/28 07:12:32;;;;;;;8.93;4.43;;;20.90;94.10;;;;;;5095694;28;20098;-58
2023/07/28 07:14:58;;;;;;;10.95;4.50;;;21.00;92.90;;;;;;5095088;28;20022;-58
2023/07/28 07:17:24;;;;;;;12.60;4.82;;;21.40;94.10;;;;;;5094967;28;20063;-58
2023/07/28 07:19:50;;;;;;;10.02;4.63;;;21.60;92.00;;;;;;5093679;28;20035;-58
2023/07/28 07:22:19;;;;;;;10.88;5.40;;;22.00;93.50;;;;;;5095207;28;20024;-58
2023/07/28 07:24:45;;;;;;;10.35;5.55;;;22.40;92.60;;;;;;5095134;28;20028;-58
2023/07/28 07:27:11;;;;;;;11.90;4.82;;;22.50;90.00;;;;;;5095161;28;20549;-58
2023/07/28 07:29:38;;;;;;;8.45;4.50;;;22.90;90.80;;;;;;5094874;28;20023;-57
2023/07/28 07:32:06;;;;;;;10.73;5.15;;;23.50;90.00;;;;;;5094423;28;20381;-57
2023/07/28 07:34:33;;;;;;;25.65;7.50;;;23.50;88.60;;;;;;5095723;28;20104;-57
2023/07/28 07:36:59;;;;;;;11.30;5.20;;;23.80;86.10;;;;;;5094882;28;20028;-56
2023/07/28 07:39:25;;;;;;;9.10;4.72;;;24.00;87.40;;;;;;5094716;28;20062;-56
2023/07/28 07:41:51;;;;;;;8.75;4.65;;;24.30;86.50;;;;;;5092741;28;20051;-56
2023/07/28 07:44:16;;;;;;;8.77;4.43;;;24.50;81.40;;;;;;5094232;28;20028;-57
2023/07/28 07:46:42;;;;;;;9.52;4.72;;;24.90;77.50;;;;;;5094518;28;20028;-57
2023/07/28 07:49:08;;;;;;;10.50;4.93;;;25.10;75.30;;;;;;5094428;28;20074;-57
2023/07/28 07:51:34;;;;;;;9.90;4.35;;;25.50;78.80;;;;;;5094934;28;20031;-56
2023/07/28 07:54:03;;;;;;;8.02;5.00;;;25.70;73.30;;;;;;5095119;28;20016;-57
2023/07/28 07:56:29;;;;;;;7.28;4.97;;;25.90;69.60;;;;;;5073273;28;20032;-57
2023/07/28 07:58:55;;;;;;;13.50;4.88;;;26.00;69.20;;;;;;5074413;28;20039;-57
2023/07/28 08:01:21;;;;;;;6.07;4.05;;;26.20;66.30;;;;;;5074494;28;20458;-57
2023/07/28 08:03:48;;;;;;;7.60;4.03;;;26.10;71.30;;;;;;5073578;28;20043;-57
2023/07/28 08:06:13;;;;;;;7.72;3.90;;;26.50;67.30;;;;;;5074982;28;20056;-58
2023/07/28 08:08:40;;;;;;;5.78;3.83;;;26.80;65.60;;;;;;5075117;28;20082;-58
2023/07/28 08:11:07;;;;;;;9.27;3.88;;;27.20;67.90;;;;;;5074958;28;20024;-59
2023/07/28 08:13:33;;;;;;;7.78;3.85;;;27.30;65.40;;;;;;5074968;28;20063;-56
2023/07/28 08:15:59;;;;;;;4.78;3.38;;;27.70;67.30;;;;;;5074408;28;20102;-56
2023/07/28 08:18:25;;;;;;;8.65;4.53;;;27.80;60.90;;;;;;5073520;28;20027;-56
2023/07/28 08:20:51;;;;;;;7.30;3.42;;;27.20;62.90;;;;;;5074974;28;20042;-56
2023/07/28 08:23:17;;;;;;;8.80;3.25;;;27.20;63.10;;;;;;5094984;28;20028;-56
2023/07/28 08:25:43;;;;;;;17.20;6.07;;;27.30;64.30;;;;;;5094685;28;20051;-56
2023/07/28 08:28:11;;;;;;;9.82;4.75;;;27.70;61.80;;;;;;5094859;28;20050;-57
2023/07/28 08:30:38;;;;;;;10.05;4.68;;;27.00;58.50;;;;;;5095031;28;20052;-57
2023/07/28 08:33:04;;;;;;;6.25;4.05;;;27.80;57.60;;;;;;5094685;28;20031;-57
2023/07/28 08:35:29;;;;;;;7.13;4.15;;;28.30;57.00;;;;;;5094193;28;20024;-57
2023/07/28 08:37:57;;;;;;;18.55;5.15;;;28.50;55.20;;;;;;5093509;28;20063;-57
2023/07/28 08:40:27;;;;;;;8.95;4.80;;;28.90;53.20;;;;;;5093600;28;20085;-57
2023/07/28 08:42:56;;;;;;;7.35;4.10;;;29.20;51.80;;;;;;5095986;28;20028;-57
2023/07/28 08:45:28;;;;;;;7.88;4.05;;;29.30;49.00;;;;;;5095299;28;20016;-58
2023/07/28 08:47:54;;;;;;;7.60;3.75;;;29.70;55.30;;;;;;5097630;28;20040;-57
2023/07/28 08:50:21;;;;;;;8.02;3.88;;;29.70;50.00;;;;;;5097713;28;20020;-57
2023/07/28 08:52:49;;;;;;;8.95;4.22;;;29.80;53.60;;;;;;5097776;28;20035;-57
2023/07/28 08:55:15;;;;;;;11.98;4.40;;;30.00;51.50;;;;;;5097409;28;20032;-57
2023/07/28 08:57:41;;;;;;;13.48;4.95;;;28.90;47.90;;;;;;5097288;28;20020;-57
2023/07/28 09:00:13;;;;;;;16.15;5.10;;;29.60;47.00;;;;;;5098248;28;20031;-57
2023/07/28 09:02:40;;;;;;;6.53;3.88;;;28.70;45.50;;;;;;5098237;28;20039;-57
2023/07/28 09:05:06;;;;;;;7.82;3.50;;;29.50;49.90;;;;;;5098019;28;20028;-57
2023/07/28 09:07:36;;;;;;;12.80;3.75;;;30.30;46.30;;;;;;5096552;28;20062;-57
2023/07/28 09:10:03;;;;;;;8.48;3.55;;;30.60;43.00;;;;;;5097814;28;20024;-57
2023/07/28 09:12:33;;;;;;;16.88;4.78;;;30.60;41.00;;;;;;5097563;28;20108;-57
2023/07/28 09:14:59;;;;;;;10.45;3.70;;;30.70;40.20;;;;;;5097683;28;20489;-57
2023/07/28 09:17:24;;;;;;;10.90;4.25;;;31.00;41.10;;;;;;5097644;28;20032;-57
2023/07/28 09:19:54;;;;;;;9.65;4.05;;;30.60;37.40;;;;;;5097607;28;20043;-58
2023/07/28 09:22:20;;;;;;;7.37;2.77;;;31.00;39.80;;;;;;5097580;28;20373;-58
2023/07/28 09:24:47;;;;;;;4.95;2.78;;;31.20;40.70;;;;;;5097628;28;20356;-58
2023/07/28 09:27:25;;;;;;;11.63;3.55;;;31.50;40.10;;;;;;5097301;28;20389;-58
2023/07/28 09:29:54;;;;;;;3.60;2.10;;;31.10;35.70;;;;;;5097347;28;20442;-58
2023/07/28 09:32:30;;;;;;;3.72;2.35;;;31.20;35.10;;;;;;5097706;28;20028;-58
2023/07/28 09:35:08;;;;;;;3.50;2.17;;;31.30;36.60;;;;;;5097406;28;20027;-58
2023/07/28 09:37:36;;;;;;;4.90;2.55;;;31.50;38.80;;;;;;5097510;28;20035;-58
2023/07/28 09:40:04;;;;;;;3.47;2.45;;;31.80;35.40;;;;;;5097449;28;20031;-58
2023/07/28 09:42:31;;;;;;;13.57;2.85;;;32.10;42.70;;;;;;5096826;28;20374;-58
2023/07/28 09:44:57;;;;;;;4.57;2.35;;;32.30;36.40;;;;;;5096099;28;20063;-58
2023/07/28 09:47:24;;;;;;;8.40;3.67;;;32.10;36.90;;;;;;5097129;28;20507;-59
2023/07/28 09:49:52;;;;;;;8.57;3.42;;;32.10;34.20;;;;;;5096752;28;20019;-59
2023/07/28 09:52:19;;;;;;;11.52;2.90;;;32.00;34.50;;;;;;5097188;28;20024;-59
2023/07/28 09:54:48;;;;;;;15.43;5.13;;;32.10;35.50;;;;;;5095829;28;20024;-58
2023/07/28 09:57:19;;;;;;;9.90;3.00;;;31.60;36.30;;;;;;5096368;28;20115;-59
2023/07/28 09:59:57;;;;;;;5.20;2.95;;;32.30;38.60;;;;;;5096709;28;20050;-58
2023/07/28 10:02:24;;;;;;;13.43;3.25;;;32.70;35.10;;;;;;5094429;28;20066;-58
2023/07/28 10:04:50;;;;;;;11.57;3.10;;;32.60;37.00;;;;;;5096860;28;20469;-57
2023/07/28 10:07:16;;;;;;;6.18;2.63;;;32.70;35.10;;;;;;5097246;28;20039;-56
2023/07/28 10:09:44;;;;;;;12.13;4.13;;;32.70;35.80;;;;;;5096387;28;20020;-56
2023/07/28 10:12:25;;;;;;;11.27;3.97;;;33.00;36.20;;;;;;5096234;28;20093;-57
2023/07/28 10:15:01;;;;;;;9.70;4.13;;;33.00;34.50;;;;;;5096787;28;20377;-57
2023/07/28 10:17:34;;;;;;;13.98;5.47;;;33.50;34.00;;;;;;5096452;28;20032;-57
2023/07/28 10:20:09;;;;;;;12.07;4.47;;;33.20;34.50;;;;;;5094971;28;20028;-56
2023/07/28 10:22:45;;;;;;;7.60;3.65;;;32.80;32.60;;;;;;5096518;28;20028;-57
2023/07/28 10:25:11;;;;;;;12.57;5.07;;;32.60;32.80;;;;;;5096145;28;20048;-57
2023/07/28 10:27:43;;;;;;;10.20;4.05;;;32.30;34.60;;;;;;5096465;28;20043;-57
2023/07/28 10:30:14;;;;;;;10.20;4.25;;;32.70;41.90;;;;;;5096367;28;20077;-57
2023/07/28 10:32:45;;;;;;;11.02;3.50;;;32.90;37.10;;;;;;5096070;28;20453;-57
2023/07/28 10:35:11;;;;;;;9.40;3.92;;;33.30;37.00;;;;;;5096845;28;20024;-56
2023/07/28 10:37:38;;;;;;;14.05;4.53;;;33.90;34.60;;;;;;5097025;28;20185;-57
2023/07/28 10:40:35;;;;;;;10.82;3.88;;;32.60;31.80;;;;;;5096772;28;20032;-57
2023/07/28 10:43:07;;;;;;;16.98;4.70;;;32.80;33.80;;;;;;5082748;28;20036;-58
2023/07/28 10:45:33;;;;;;;10.48;4.05;;;31.70;33.20;;;;;;5076369;28;20040;-58
2023/07/28 10:48:00;;;;;;;9.10;3.55;;;32.00;35.80;;;;;;5075815;28;20027;-57
2023/07/28 10:50:31;;;;;;;7.65;3.72;;;32.60;38.00;;;;;;5075938;28;20397;-56
2023/07/28 10:52:57;;;;;;;9.90;4.72;;;32.80;35.80;;;;;;5075779;28;20154;-56
2023/07/28 10:55:25;;;;;;;8.93;4.25;;;32.80;39.10;;;;;;5075264;28;20060;-56
2023/07/28 10:57:53;;;;;;;6.22;3.65;;;32.20;35.50;;;;;;5075553;28;20024;-56
2023/07/28 11:00:21;;;;;;;8.88;3.90;;;32.80;35.80;;;;;;5076669;28;20021;-57
2023/07/28 11:02:49;;;;;;;11.50;4.30;;;33.30;33.70;;;;;;5095267;28;20032;-56
2023/07/28 11:05:26;;;;;;;9.45;4.35;;;33.50;33.50;;;;;;5094728;28;20020;-57
2023/07/28 11:07:55;;;;;;;7.90;4.53;;;33.80;33.30;;;;;;5095553;28;20028;-56
2023/07/28 11:10:21;;;;;;;9.00;4.60;;;33.40;32.30;;;;;;5095633;28;20031;-57
2023/07/28 11:12:50;;;;;;;10.63;4.88;;;33.70;36.50;;;;;;5095813;28;20061;-57
2023/07/28 11:15:17;;;;;;;8.38;4.03;;;33.80;34.30;;;;;;5095945;28;20084;-57
2023/07/28 11:17:49;;;;;;;17.13;5.95;;;34.10;34.10;;;;;;5095471;28;20040;-57
2023/07/28 11:20:16;;;;;;;9.25;4.60;;;34.30;33.90;;;;;;5095473;28;20473;-57
2023/07/28 11:22:44;;;;;;;7.75;3.88;;;34.10;34.70;;;;;;5095454;28;20020;-57
2023/07/28 11:25:10;;;;;;;25.98;12.93;;;33.80;38.70;;;;;;5094100;28;20056;-56
2023/07/28 11:27:37;;;;;;;6.85;4.00;;;33.10;33.80;;;;;;5094959;28;20484;-57
2023/07/28 11:30:04;;;;;;;8.23;3.80;;;33.40;37.80;;;;;;5095117;28;20157;-57
2023/07/28 11:32:37;;;;;;;8.18;4.00;;;33.90;37.10;;;;;;5084171;28;20081;-57
2023/07/28 11:35:11;;;;;;;9.60;3.00;;;34.20;36.10;;;;;;5074819;28;20512;-56
2023/07/28 11:37:39;;;;;;;9.38;2.92;;;34.20;32.40;;;;;;5075330;28;20033;-57
2023/07/28 11:40:07;;;;;;;13.35;4.60;;;34.50;42.40;;;;;;5073629;28;20029;-57
2023/07/28 11:42:35;;;;;;;10.93;4.13;;;34.60;32.90;;;;;;5083635;28;20028;-57
2023/07/28 11:45:05;;;;;;;10.68;3.13;;;33.70;32.40;;;;;;5095028;28;20035;-57
2023/07/28 11:47:32;;;;;;;8.77;3.33;;;33.50;33.70;;;;;;5094945;28;20032;-57
2023/07/28 11:49:58;;;;;;;10.63;3.38;;;33.60;35.80;;;;;;5094874;28;20133;-57
2023/07/28 11:52:36;;;;;;;8.98;3.10;;;34.30;33.70;;;;;;5093550;28;20024;-56
2023/07/28 11:55:05;;;;;;;6.65;3.03;;;34.20;32.30;;;;;;5094836;28;20045;-56
2023/07/28 11:57:32;;;;;;;7.97;2.90;;;34.30;34.20;;;;;;5094763;28;20032;-56
2023/07/28 12:00:02;;;;;;;6.78;2.80;;;33.40;30.70;;;;;;5094476;28;20032;-56
2023/07/28 12:02:33;;;;;;;8.38;2.83;;;33.10;34.50;;;;;;5094386;28;20530;-56
2023/07/28 12:05:04;;;;;;;14.55;4.65;;;32.50;34.70;;;;;;5094709;28;20058;-56
2023/07/28 12:07:34;;;;;;;12.60;4.68;;;32.80;36.30;;;;;;5094566;28;20420;-56
2023/07/28 12:10:06;;;;;;;11.52;3.25;;;33.10;38.30;;;;;;5094422;28;20019;-56
2023/07/28 12:12:44;;;;;;;5.45;2.70;;;33.60;37.50;;;;;;5094521;28;20362;-56
2023/07/28 12:15:28;;;;;;;5.22;3.17;;;34.20;33.20;;;;;;5094501;28;20431;-56
2023/07/28 12:18:03;;;;;;;8.15;3.28;;;33.90;35.40;;;;;;5094894;28;20020;-56
2023/07/28 12:20:36;;;;;;;8.48;3.53;;;34.10;34.70;;;;;;5095106;28;20587;-56
2023/07/28 12:23:03;;;;;;;6.85;2.83;;;34.50;35.70;;;;;;5095284;28;20111;-57
2023/07/28 12:25:29;;;;;;;5.28;2.53;;;34.60;32.40;;;;;;5094055;28;20055;-56
2023/07/28 12:27:57;;;;;;;5.15;2.50;;;35.00;32.30;;;;;;5094525;28;20072;-56
2023/07/28 12:30:26;;;;;;;12.95;4.47;;;35.00;34.70;;;;;;5094341;28;20459;-56
2023/07/28 12:32:56;;;;;;;6.25;3.95;;;35.20;34.10;;;;;;5092339;28;20058;-56
2023/07/28 12:35:26;;;;;;;5.67;2.83;;;35.30;36.60;;;;;;5094184;28;20425;-56
2023/07/28 12:37:52;;;;;;;7.00;3.05;;;34.40;33.90;;;;;;5094241;28;20047;-56
2023/07/28 12:40:19;;;;;;;14.50;3.88;;;34.60;36.80;;;;;;5094009;28;20516;-57
2023/07/28 12:42:48;;;;;;;4.50;2.95;;;34.30;33.90;;;;;;5094219;28;20028;-56
2023/07/28 12:45:18;;;;;;;13.88;7.28;;;34.10;37.50;;;;;;5093103;28;20095;-56
2023/07/28 12:47:44;;;;;;;22.80;12.27;;;34.40;33.00;;;;;;5094215;28;20027;-56
2023/07/28 12:50:10;;;;;;;35.42;22.30;;;34.20;33.50;;;;;;5094348;28;20028;-56